Time;durP1;ratioP1;P1;durP2;ratioP2;P2;SDS_P1;SDS_P2;PMS_P1;PMS_P2;Temp;Humidity;BMP_temperature;BMP_pressure;BME280_temperature;BME280_humidity;BME280_pressure;Samples;Min_cycle;Max_cycle;Signal;HPM_P1;HPM_P2
2021/12/17 00:01:16;;;;;;;18.83;14.68;;;;;;;;;;143734;642;46022;-60
2021/12/17 00:03:49;;;;;;;18.87;15.13;;;;;;;;;;143734;564;47019;-60
2021/12/17 00:06:41;;;;;;;22.60;15.43;;;;;;;;;;143731;570;47010;-60
2021/12/17 00:09:06;;;;;;;23.50;15.57;;;;;;;;;;143735;610;46020;-59
2021/12/17 00:11:33;;;;;;;24.30;17.37;;;;;;;;;;143737;603;46022;-59
2021/12/17 00:14:03;;;;;;;25.02;16.62;;;;;;;;;;143735;577;47018;-60
2021/12/17 00:16:36;;;;;;;20.05;14.63;;;;;;;;;;143733;573;47010;-59
2021/12/17 00:49:16;;;;;;;18.77;13.57;;;;;;;;;;143733;656;47023;-59
2021/12/17 00:52:02;;;;;;;19.00;14.73;;;;;;;;;;143734;590;46018;-61
2021/12/17 00:54:36;;;;;;;17.70;13.75;;;;;;;;;;143735;582;46022;-59
2021/12/17 00:57:17;;;;;;;19.92;15.10;;;;;;;;;;143735;604;47021;-60
2021/12/17 00:59:47;;;;;;;16.55;13.62;;;;;;;;;;143733;585;47010;-60
2021/12/17 01:02:18;;;;;;;22.33;14.30;;;;;;;;;;143733;609;46018;-61
2021/12/17 01:04:53;;;;;;;20.30;14.60;;;;;;;;;;143737;580;46023;-60
2021/12/17 01:07:23;;;;;;;20.27;15.43;;;;;;;;;;143728;571;47018;-60
2021/12/17 01:09:51;;;;;;;16.33;12.90;;;;;;;;;;143726;615;47010;-59
2021/12/17 01:12:20;;;;;;;18.48;13.77;;;;;;;;;;143726;570;46019;-59
2021/12/17 01:14:48;;;;;;;17.65;13.62;;;;;;;;;;143729;573;46022;-60
2021/12/17 01:17:17;;;;;;;22.37;15.27;;;;;;;;;;143726;564;47019;-59
2021/12/17 01:25:44;;;;;;;18.80;13.30;;;;;;;;;;143721;614;47024;-59
2021/12/17 01:36:30;;;;;;;15.38;12.45;;;;;;;;;;143724;595;47010;-60
2021/12/17 01:40:10;;;;;;;15.02;11.73;;;;;;;;;;143726;578;47020;-59
2021/12/17 01:42:05;;;;;;;17.67;13.70;;;;;;;;;;143725;582;46023;-60
2021/12/17 01:44:35;;;;;;;16.42;11.98;;;;;;;;;;143726;595;46018;-59
2021/12/17 01:47:04;;;;;;;18.12;13.23;;;;;;;;;;143727;571;46022;-60
2021/12/17 02:00:50;;;;;;;18.52;12.68;;;;;;;;;;143728;604;47018;-60
2021/12/17 02:03:17;;;;;;;15.90;12.07;;;;;;;;;;143724;610;47011;-60
2021/12/17 02:05:45;;;;;;;17.50;13.75;;;;;;;;;;143726;623;46018;-60
2021/12/17 02:08:12;;;;;;;14.77;12.07;;;;;;;;;;143733;603;46022;-60
2021/12/17 02:22:37;;;;;;;15.75;12.37;;;;;;;;;;143738;619;46018;-60
2021/12/17 02:33:03;;;;;;;17.60;13.55;;;;;;;;;;143735;633;47012;-59
2021/12/17 02:35:35;;;;;;;16.98;13.20;;;;;;;;;;143733;618;47010;-59
2021/12/17 02:38:03;;;;;;;19.02;12.82;;;;;;;;;;143740;585;46016;-61
2021/12/17 02:45:59;;;;;;;18.62;14.27;;;;;;;;;;143735;619;45918;-59
2021/12/17 02:48:27;;;;;;;21.52;14.73;;;;;;;;;;143732;594;46018;-59
2021/12/17 02:50:57;;;;;;;19.90;15.15;;;;;;;;;;143736;656;46022;-59
2021/12/17 02:53:25;;;;;;;19.20;15.18;;;;;;;;;;143733;622;47018;-59
2021/12/17 02:56:01;;;;;;;19.15;14.30;;;;;;;;;;143731;579;47010;-59
2021/12/17 02:58:28;;;;;;;;;;;;;;;;;;143738;974;46018;-59
2021/12/17 03:00:56;;;;;;;16.83;12.40;;;;;;;;;;143747;571;46022;-59
2021/12/17 03:03:30;;;;;;;18.60;14.77;;;;;;;;;;143733;570;47019;-60
2021/12/17 03:05:58;;;;;;;21.33;16.02;;;;;;;;;;143730;576;47010;-59
2021/12/17 03:08:25;;;;;;;21.65;16.67;;;;;;;;;;143731;595;46018;-58
2021/12/17 03:10:52;;;;;;;25.12;15.40;;;;;;;;;;143734;610;46023;-58
2021/12/17 03:13:24;;;;;;;19.62;15.55;;;;;;;;;;143731;579;47018;-59
2021/12/17 03:16:08;;;;;;;22.17;15.57;;;;;;;;;;143732;577;47010;-58
2021/12/17 03:24:13;;;;;;;18.33;13.88;;;;;;;;;;143733;620;47018;-57
2021/12/17 03:26:40;;;;;;;17.75;13.80;;;;;;;;;;143732;585;47010;-57
2021/12/17 03:29:08;;;;;;;17.33;13.00;;;;;;;;;;143733;606;46018;-56
2021/12/17 03:31:36;;;;;;;26.85;17.05;;;;;;;;;;143735;619;46022;-57
2021/12/17 03:36:58;;;;;;;19.30;14.00;;;;;;;;;;143735;569;45923;-57
2021/12/17 03:39:26;;;;;;;22.67;16.25;;;;;;;;;;143734;628;46018;-57
2021/12/17 03:41:55;;;;;;;20.50;15.85;;;;;;;;;;143735;577;46023;-58
2021/12/17 03:44:22;;;;;;;26.50;18.73;;;;;;;;;;143733;567;47018;-57
2021/12/17 03:46:51;;;;;;;19.95;15.13;;;;;;;;;;143731;572;47011;-56
2021/12/17 03:49:19;;;;;;;23.65;15.98;;;;;;;;;;143734;616;46019;-57
2021/12/17 03:51:50;;;;;;;20.42;15.18;;;;;;;;;;143735;611;46022;-56
2021/12/17 03:54:17;;;;;;;18.73;14.95;;;;;;;;;;143729;569;47020;-56
2021/12/17 03:56:45;;;;;;;22.48;15.57;;;;;;;;;;143735;583;47010;-57
2021/12/17 03:59:12;;;;;;;21.58;16.73;;;;;;;;;;143732;573;46018;-56
2021/12/17 04:01:39;;;;;;;22.73;16.62;;;;;;;;;;143734;603;46022;-56
2021/12/17 04:04:07;;;;;;;20.62;16.17;;;;;;;;;;143731;615;47021;-56
2021/12/17 04:06:34;;;;;;;20.42;16.73;;;;;;;;;;143731;615;47010;-56
2021/12/17 04:09:01;;;;;;;22.60;16.65;;;;;;;;;;143732;588;46018;-56
2021/12/17 04:11:30;;;;;;;21.23;15.63;;;;;;;;;;143735;571;46023;-57
2021/12/17 04:13:58;;;;;;;20.83;15.45;;;;;;;;;;143732;569;47018;-56
2021/12/17 04:16:29;;;;;;;23.25;15.40;;;;;;;;;;143730;570;47010;-56
2021/12/17 04:18:57;;;;;;;20.58;14.52;;;;;;;;;;143734;615;46019;-56
2021/12/17 04:21:25;;;;;;;24.20;16.58;;;;;;;;;;143735;565;46022;-56
2021/12/17 04:23:54;;;;;;;23.62;16.30;;;;;;;;;;143731;586;47019;-56
2021/12/17 04:26:22;;;;;;;21.83;16.40;;;;;;;;;;143729;569;47010;-56
2021/12/17 04:28:51;;;;;;;24.52;15.63;;;;;;;;;;143734;581;46018;-56
2021/12/17 04:31:28;;;;;;;21.67;14.73;;;;;;;;;;143735;578;46022;-56
2021/12/17 04:33:56;;;;;;;23.87;17.40;;;;;;;;;;143733;572;47018;-57
2021/12/17 04:36:27;;;;;;;22.02;16.87;;;;;;;;;;143730;590;47010;-56
2021/12/17 04:38:56;;;;;;;23.38;17.52;;;;;;;;;;143733;646;46018;-56
2021/12/17 04:41:41;;;;;;;27.33;17.85;;;;;;;;;;143735;569;46023;-56
2021/12/17 04:58:16;;;;;;;25.58;18.20;;;;;;;;;;143735;675;45920;-56
2021/12/17 05:00:44;;;;;;;27.65;19.65;;;;;;;;;;143733;585;46018;-56
2021/12/17 05:03:11;;;;;;;27.37;18.55;;;;;;;;;;143735;583;46023;-57
2021/12/17 05:05:38;;;;;;;32.33;22.08;;;;;;;;;;143731;573;47018;-56
2021/12/17 05:08:11;;;;;;;22.25;16.48;;;;;;;;;;143731;588;47010;-56
2021/12/17 05:10:55;;;;;;;35.67;22.08;;;;;;;;;;143728;601;46019;-58
2021/12/17 05:19:16;;;;;;;29.92;23.58;;;;;;;;;;143735;595;45919;-57
2021/12/17 05:21:43;;;;;;;22.48;18.30;;;;;;;;;;143718;580;46018;-57
2021/12/17 05:24:10;;;;;;;22.77;16.15;;;;;;;;;;143734;564;46022;-57
2021/12/17 05:26:37;;;;;;;23.85;16.90;;;;;;;;;;143732;576;47048;-57
2021/12/17 05:29:05;;;;;;;26.33;18.58;;;;;;;;;;143731;598;47012;-58
2021/12/17 05:31:35;;;;;;;26.52;18.70;;;;;;;;;;143733;589;46018;-58
2021/12/17 05:34:02;;;;;;;28.10;16.50;;;;;;;;;;143735;616;46023;-57
2021/12/17 05:36:29;;;;;;;25.83;17.50;;;;;;;;;;143731;569;47018;-57
2021/12/17 05:38:56;;;;;;;32.88;20.50;;;;;;;;;;143731;599;47012;-57
2021/12/17 05:41:23;;;;;;;28.48;18.52;;;;;;;;;;143732;573;46019;-58
2021/12/17 05:43:56;;;;;;;29.83;17.95;;;;;;;;;;143735;595;46022;-57
2021/12/17 05:46:37;;;;;;;24.33;17.55;;;;;;;;;;143731;602;47020;-57
2021/12/17 05:49:07;;;;;;;23.80;17.02;;;;;;;;;;143733;592;47012;-57
2021/12/17 05:51:34;;;;;;;23.98;17.42;;;;;;;;;;143733;663;46018;-57
2021/12/17 05:54:01;;;;;;;23.60;16.48;;;;;;;;;;143734;600;46022;-58
2021/12/17 05:56:28;;;;;;;21.55;15.93;;;;;;;;;;143730;585;47021;-57
2021/12/17 05:58:56;;;;;;;21.75;16.25;;;;;;;;;;143732;684;47012;-57
2021/12/17 06:01:23;;;;;;;24.60;16.27;;;;;;;;;;143730;714;46019;-58
2021/12/17 06:03:50;;;;;;;27.25;19.83;;;;;;;;;;143732;565;46023;-57
2021/12/17 06:06:34;;;;;;;21.90;17.08;;;;;;;;;;143732;593;47018;-56
2021/12/17 06:09:04;;;;;;;22.85;16.23;;;;;;;;;;143735;564;47012;-57
2021/12/17 06:11:32;;;;;;;27.83;21.23;;;;;;;;;;143735;573;46028;-57
2021/12/17 06:13:59;;;;;;;40.38;30.90;;;;;;;;;;143735;761;46022;-58
2021/12/17 06:16:27;;;;;;;33.72;24.27;;;;;;;;;;143732;704;47020;-58
2021/12/17 06:18:55;;;;;;;45.92;33.10;;;;;;;;;;143731;692;47012;-57
2021/12/17 06:21:22;;;;;;;35.03;23.33;;;;;;;;;;143732;604;46018;-57
2021/12/17 06:23:49;;;;;;;30.62;22.25;;;;;;;;;;143734;583;46022;-58
2021/12/17 06:26:16;;;;;;;26.55;18.65;;;;;;;;;;143732;650;47027;-57
2021/12/17 06:28:43;;;;;;;24.08;17.77;;;;;;;;;;143730;591;47012;-57
2021/12/17 06:31:10;;;;;;;29.08;21.37;;;;;;;;;;143732;632;46018;-58
2021/12/17 06:33:37;;;;;;;34.70;23.77;;;;;;;;;;143734;576;46023;-57
2021/12/17 06:36:04;;;;;;;51.72;33.15;;;;;;;;;;143733;651;47018;-56
2021/12/17 06:38:31;;;;;;;42.55;28.92;;;;;;;;;;143730;595;47012;-58
2021/12/17 06:40:58;;;;;;;70.28;46.03;;;;;;;;;;143732;572;46019;-59
2021/12/17 06:43:33;;;;;;;48.95;34.58;;;;;;;;;;143734;601;46022;-58
2021/12/17 06:48:56;;;;;;;47.92;29.15;;;;;;;;;;143734;581;46022;-59
2021/12/17 07:00:11;;;;;;;49.45;30.40;;;;;;;;;;143735;585;45920;-58
2021/12/17 07:11:02;;;;;;;42.13;28.27;;;;;;;;;;143735;600;45919;-58
2021/12/17 07:28:14;;;;;;;26.30;18.30;;;;;;;;;;143742;589;46018;-59
2021/12/17 07:33:39;;;;;;;22.75;14.60;;;;;;;;;;143735;644;45917;-59
2021/12/17 07:36:13;;;;;;;15.52;11.70;;;;;;;;;;143731;585;46020;-58
2021/12/17 07:38:47;;;;;;;20.50;12.40;;;;;;;;;;143734;632;46020;-58
2021/12/17 07:41:15;;;;;;;16.53;12.37;;;;;;;;;;143731;624;47029;-58
2021/12/17 07:43:52;;;;;;;27.35;15.80;;;;;;;;;;143732;642;47012;-58
2021/12/17 07:46:20;;;;;;;26.45;15.73;;;;;;;;;;143733;583;46020;-58
2021/12/17 07:48:48;;;;;;;26.37;17.17;;;;;;;;;;143734;602;46020;-58
2021/12/17 07:51:17;;;;;;;25.40;16.75;;;;;;;;;;143732;598;48020;-58
2021/12/17 07:53:44;;;;;;;29.63;16.50;;;;;;;;;;143732;610;47012;-58
2021/12/17 07:56:16;;;;;;;23.98;16.20;;;;;;;;;;143733;571;46020;-57
2021/12/17 07:58:43;;;;;;;21.37;15.15;;;;;;;;;;143733;618;46020;-57
2021/12/17 08:01:11;;;;;;;22.37;14.35;;;;;;;;;;143731;571;47022;-57
2021/12/17 08:03:39;;;;;;;23.90;14.60;;;;;;;;;;143731;570;47012;-57
2021/12/17 08:06:07;;;;;;;22.87;15.00;;;;;;;;;;143733;626;46020;-57
2021/12/17 08:08:35;;;;;;;15.93;12.52;;;;;;;;;;143733;696;46021;-57
2021/12/17 08:11:02;;;;;;;24.23;13.60;;;;;;;;;;143731;750;47023;-57
2021/12/17 08:13:32;;;;;;;21.52;12.88;;;;;;;;;;143730;611;47012;-57
2021/12/17 08:16:31;;;;;;;19.33;12.77;;;;;;;;;;143734;687;46021;-57
2021/12/17 08:23:21;;;;;;;23.40;15.65;;;;;;;;;;143733;648;46020;-57
2021/12/17 08:27:30;;;;;;;19.67;12.32;;;;;;;;;;143731;572;47018;-56
2021/12/17 08:30:22;;;;;;;19.23;11.77;;;;;;;;;;143734;607;46020;-56
2021/12/17 08:32:50;;;;;;;15.70;10.38;;;;;;;;;;143734;577;47020;-56
2021/12/17 08:35:17;;;;;;;17.37;12.52;;;;;;;;;;143732;595;47012;-55
2021/12/17 08:37:44;;;;;;;24.60;12.02;;;;;;;;;;143734;574;46020;-56
2021/12/17 08:40:11;;;;;;;16.62;11.75;;;;;;;;;;143733;617;46021;-55
2021/12/17 08:42:38;;;;;;;15.73;11.80;;;;;;;;;;143734;580;47022;-56
2021/12/17 08:45:08;;;;;;;15.30;10.77;;;;;;;;;;143739;639;46021;-56
2021/12/17 08:47:36;;;;;;;30.80;20.60;;;;;;;;;;143734;618;46021;-57
2021/12/17 08:50:06;;;;;;;26.15;15.75;;;;;;;;;;143735;623;46020;-57
2021/12/17 08:52:34;;;;;;;26.80;16.23;;;;;;;;;;143733;574;47022;-59
2021/12/17 08:55:01;;;;;;;23.20;16.83;;;;;;;;;;143732;572;47012;-59
2021/12/17 08:57:28;;;;;;;23.98;16.05;;;;;;;;;;143734;615;46020;-58
2021/12/17 08:59:57;;;;;;;27.50;16.20;;;;;;;;;;143734;576;46020;-58
2021/12/17 09:02:25;;;;;;;24.08;14.40;;;;;;;;;;143733;603;47020;-58
2021/12/17 09:04:52;;;;;;;19.00;13.77;;;;;;;;;;143731;622;47012;-59
2021/12/17 09:07:19;;;;;;;27.00;15.68;;;;;;;;;;143734;569;46020;-59
2021/12/17 09:09:48;;;;;;;22.00;13.60;;;;;;;;;;143734;622;46021;-59
2021/12/17 09:12:15;;;;;;;17.35;12.45;;;;;;;;;;143732;593;47022;-59
2021/12/17 09:14:42;;;;;;;18.02;12.32;;;;;;;;;;143726;648;47013;-59
2021/12/17 09:17:09;;;;;;;16.52;11.88;;;;;;;;;;143734;646;46021;-59
2021/12/17 09:19:36;;;;;;;16.98;12.48;;;;;;;;;;143733;604;46020;-59
2021/12/17 09:22:03;;;;;;;16.83;11.57;;;;;;;;;;143731;567;47022;-59
2021/12/17 09:24:30;;;;;;;17.87;12.37;;;;;;;;;;143735;596;47012;-59
2021/12/17 09:26:58;;;;;;;14.93;12.43;;;;;;;;;;143733;615;46020;-59
2021/12/17 09:29:25;;;;;;;14.75;10.93;;;;;;;;;;143735;572;46020;-60
2021/12/17 09:31:52;;;;;;;17.00;10.77;;;;;;;;;;143735;583;47023;-59
2021/12/17 09:34:19;;;;;;;15.00;9.63;;;;;;;;;;143729;619;47028;-60
2021/12/17 09:36:46;;;;;;;15.55;9.98;;;;;;;;;;143735;565;46020;-59
2021/12/17 09:39:13;;;;;;;15.68;11.12;;;;;;;;;;143735;587;46021;-59
2021/12/17 09:41:50;;;;;;;11.57;8.82;;;;;;;;;;143737;585;47022;-60
2021/12/17 09:44:18;;;;;;;12.05;8.55;;;;;;;;;;143738;565;47012;-60
2021/12/17 09:46:47;;;;;;;14.70;9.65;;;;;;;;;;143736;597;47012;-60
2021/12/17 09:49:17;;;;;;;12.75;9.23;;;;;;;;;;143747;635;46020;-61
2021/12/17 09:51:45;;;;;;;16.05;10.45;;;;;;;;;;143738;626;47022;-59
2021/12/17 09:54:13;;;;;;;18.87;10.05;;;;;;;;;;143732;630;47012;-58
2021/12/17 09:56:40;;;;;;;18.48;8.45;;;;;;;;;;143735;603;46020;-59
2021/12/17 09:59:07;;;;;;;16.92;8.77;;;;;;;;;;143741;588;46020;-58
2021/12/17 10:01:42;;;;;;;10.52;8.13;;;;;;;;;;143734;615;47023;-59
2021/12/17 10:04:20;;;;;;;11.95;8.40;;;;;;;;;;143737;633;47012;-61
2021/12/17 10:06:49;;;;;;;9.63;7.80;;;;;;;;;;143737;585;46020;-58
2021/12/17 10:09:17;;;;;;;11.20;8.02;;;;;;;;;;143742;574;46021;-58
2021/12/17 10:12:04;;;;;;;12.57;8.20;;;;;;;;;;143740;569;47020;-60
2021/12/17 10:14:31;;;;;;;11.48;7.60;;;;;;;;;;143735;612;47013;-60
2021/12/17 10:17:10;;;;;;;11.23;8.07;;;;;;;;;;143737;564;46021;-59
2021/12/17 10:19:53;;;;;;;12.48;7.70;;;;;;;;;;143741;619;46020;-57
2021/12/17 10:22:22;;;;;;;41.78;25.60;;;;;;;;;;143738;607;47022;-57
2021/12/17 10:25:16;;;;;;;48.70;29.67;;;;;;;;;;143733;566;47012;-57
2021/12/17 10:27:43;;;;;;;21.35;15.95;;;;;;;;;;143736;592;46020;-57
2021/12/17 10:30:14;;;;;;;22.60;16.65;;;;;;;;;;143734;570;47021;-57
2021/12/17 10:32:44;;;;;;;18.85;12.37;;;;;;;;;;143734;569;47020;-57
2021/12/17 10:35:22;;;;;;;16.27;12.75;;;;;;;;;;143735;587;47012;-58
2021/12/17 10:38:00;;;;;;;22.02;14.40;;;;;;;;;;143735;564;46021;-58
2021/12/17 10:40:30;;;;;;;15.10;11.12;;;;;;;;;;143736;590;46020;-58
2021/12/17 10:43:23;;;;;;;13.40;9.85;;;;;;;;;;143738;591;47020;-58
2021/12/17 10:48:52;;;;;;;13.80;10.80;;;;;;;;;;143739;570;46929;-58
2021/12/17 10:51:46;;;;;;;13.30;10.07;;;;;;;;;;143735;579;46020;-58
2021/12/17 10:54:18;;;;;;;22.98;15.85;;;;;;;;;;143734;565;47020;-58
2021/12/17 10:56:55;;;;;;;23.02;17.00;;;;;;;;;;143734;589;46020;-58
2021/12/17 10:59:34;;;;;;;16.77;12.50;;;;;;;;;;143735;599;46020;-58
2021/12/17 11:02:11;;;;;;;16.48;11.88;;;;;;;;;;143736;613;46021;-58
2021/12/17 11:04:41;;;;;;;15.65;12.23;;;;;;;;;;143734;600;47022;-58
2021/12/17 11:07:12;;;;;;;15.73;10.90;;;;;;;;;;143733;580;47010;-59
2021/12/17 11:09:53;;;;;;;14.43;9.70;;;;;;;;;;143733;589;46020;-58
2021/12/17 11:12:32;;;;;;;15.57;9.55;;;;;;;;;;143742;624;46020;-59
2021/12/17 11:15:24;;;;;;;16.55;10.05;;;;;;;;;;143733;616;47021;-59
2021/12/17 11:18:00;;;;;;;11.68;8.80;;;;;;;;;;143735;586;47010;-59
2021/12/17 11:20:30;;;;;;;12.35;8.90;;;;;;;;;;143733;583;46020;-60
2021/12/17 11:23:05;;;;;;;12.10;9.18;;;;;;;;;;143740;606;46021;-59
2021/12/17 11:25:33;;;;;;;12.60;8.75;;;;;;;;;;143739;610;47020;-59
2021/12/17 11:28:00;;;;;;;12.70;8.57;;;;;;;;;;143737;616;47010;-60
2021/12/17 11:30:32;;;;;;;14.02;8.65;;;;;;;;;;143739;579;46021;-59
2021/12/17 11:33:01;;;;;;;11.25;8.50;;;;;;;;;;143742;639;46020;-59
2021/12/17 11:35:30;;;;;;;10.00;7.65;;;;;;;;;;143739;566;47021;-59
2021/12/17 11:38:03;;;;;;;12.00;7.87;;;;;;;;;;143736;625;47011;-60
2021/12/17 11:40:57;;;;;;;11.20;7.80;;;;;;;;;;143737;599;46020;-59
2021/12/17 11:43:58;;;;;;;11.32;8.13;;;;;;;;;;143743;577;46020;-59
2021/12/17 11:46:32;;;;;;;12.60;8.48;;;;;;;;;;143735;587;47025;-59
2021/12/17 11:49:17;;;;;;;10.07;8.00;;;;;;;;;;143737;577;47010;-59
2021/12/17 11:51:54;;;;;;;11.48;7.70;;;;;;;;;;143738;578;46022;-59
2021/12/17 11:54:30;;;;;;;11.90;7.85;;;;;;;;;;143740;588;46020;-59
2021/12/17 11:57:17;;;;;;;11.40;8.48;;;;;;;;;;143740;604;47020;-60
2021/12/17 11:59:47;;;;;;;12.63;7.60;;;;;;;;;;143737;572;47010;-59
2021/12/17 12:02:24;;;;;;;12.02;7.70;;;;;;;;;;143739;580;46020;-59
2021/12/17 12:05:03;;;;;;;10.73;8.27;;;;;;;;;;143743;575;46020;-59
2021/12/17 12:07:40;;;;;;;13.57;7.30;;;;;;;;;;143738;585;47020;-60
2021/12/17 12:10:21;;;;;;;13.38;8.00;;;;;;;;;;143737;625;47010;-60
2021/12/17 12:12:58;;;;;;;11.38;7.70;;;;;;;;;;143736;596;46020;-60
2021/12/17 12:15:31;;;;;;;9.45;7.57;;;;;;;;;;143742;579;46021;-59
2021/12/17 12:18:12;;;;;;;10.70;7.35;;;;;;;;;;143741;590;47020;-59
2021/12/17 12:20:51;;;;;;;12.32;8.23;;;;;;;;;;143736;566;47010;-59
2021/12/17 12:23:39;;;;;;;12.00;7.93;;;;;;;;;;143737;605;46021;-61
2021/12/17 12:26:26;;;;;;;9.63;7.28;;;;;;;;;;143739;569;46020;-59
2021/12/17 12:29:05;;;;;;;12.15;7.68;;;;;;;;;;143738;591;48021;-61
2021/12/17 12:31:48;;;;;;;11.50;8.77;;;;;;;;;;143739;575;47010;-59
2021/12/17 12:34:28;;;;;;;9.98;7.85;;;;;;;;;;143739;578;46022;-59
2021/12/17 12:37:22;;;;;;;10.40;7.53;;;;;;;;;;143742;589;46019;-60
2021/12/17 12:40:15;;;;;;;11.45;7.70;;;;;;;;;;143732;587;47024;-60
2021/12/17 12:42:49;;;;;;;10.98;7.55;;;;;;;;;;143735;662;47919;-60
2021/12/17 12:45:17;;;;;;;11.00;8.02;;;;;;;;;;143738;569;46021;-60
2021/12/17 12:47:54;;;;;;;14.10;9.10;;;;;;;;;;143743;668;46020;-59
2021/12/17 12:50:25;;;;;;;9.98;7.07;;;;;;;;;;143739;669;47021;-61
2021/12/17 12:53:26;;;;;;;10.55;7.20;;;;;;;;;;143739;585;47010;-59
2021/12/17 12:55:53;;;;;;;31.52;20.50;;;;;;;;;;143740;580;46022;-59
2021/12/17 12:58:28;;;;;;;89.37;56.08;;;;;;;;;;143735;573;46021;-59
2021/12/17 13:00:59;;;;;;;26.70;16.08;;;;;;;;;;143734;564;47023;-59
2021/12/17 13:03:31;;;;;;;50.40;32.75;;;;;;;;;;143732;614;47010;-59
2021/12/17 13:06:02;;;;;;;25.40;17.08;;;;;;;;;;143735;586;46020;-59
2021/12/17 13:08:31;;;;;;;33.45;22.08;;;;;;;;;;143737;643;46021;-60
2021/12/17 13:11:00;;;;;;;12.37;9.05;;;;;;;;;;143734;569;47020;-60
2021/12/17 13:13:34;;;;;;;10.30;7.60;;;;;;;;;;143736;589;47010;-60
2021/12/17 13:16:34;;;;;;;28.30;18.55;;;;;;;;;;143738;658;46021;-60
2021/12/17 13:21:47;;;;;;;22.20;15.30;;;;;;;;;;143742;677;47021;-60
2021/12/17 13:24:21;;;;;;;15.48;10.77;;;;;;;;;;143733;609;47010;-60
2021/12/17 13:27:06;;;;;;;13.65;9.25;;;;;;;;;;143735;624;46020;-59
2021/12/17 13:29:35;;;;;;;14.77;9.93;;;;;;;;;;143742;569;46021;-60
2021/12/17 13:32:17;;;;;;;11.02;7.00;;;;;;;;;;143734;576;47022;-60
2021/12/17 13:34:56;;;;;;;12.48;8.38;;;;;;;;;;143740;564;47010;-59
2021/12/17 13:37:32;;;;;;;14.10;8.32;;;;;;;;;;143737;623;46021;-60
2021/12/17 13:40:02;;;;;;;11.20;7.53;;;;;;;;;;143740;595;46020;-60
2021/12/17 13:42:34;;;;;;;8.85;6.47;;;;;;;;;;143739;662;47022;-59
2021/12/17 13:45:23;;;;;;;9.70;6.45;;;;;;;;;;143739;606;47010;-59
2021/12/17 13:47:55;;;;;;;10.38;7.32;;;;;;;;;;143736;619;46020;-60
2021/12/17 13:50:35;;;;;;;12.40;8.55;;;;;;;;;;143742;573;46020;-59
2021/12/17 13:53:13;;;;;;;14.02;9.60;;;;;;;;;;143739;581;47020;-60
2021/12/17 13:55:43;;;;;;;16.23;9.43;;;;;;;;;;143739;579;47010;-60
2021/12/17 13:58:20;;;;;;;9.73;6.43;;;;;;;;;;143735;662;46021;-60
2021/12/17 14:00:54;;;;;;;9.98;6.45;;;;;;;;;;143740;622;46021;-60
2021/12/17 14:03:23;;;;;;;12.77;8.27;;;;;;;;;;143739;580;47020;-60
2021/12/17 14:06:08;;;;;;;9.90;7.03;;;;;;;;;;143738;565;47011;-60
2021/12/17 14:08:40;;;;;;;9.98;7.62;;;;;;;;;;143727;569;46909;-60
2021/12/17 14:11:30;;;;;;;9.25;7.28;;;;;;;;;;143734;573;46020;-60
2021/12/17 14:13:57;;;;;;;10.40;6.97;;;;;;;;;;143741;589;47021;-60
2021/12/17 14:16:34;;;;;;;9.68;7.12;;;;;;;;;;143738;589;47010;-60
2021/12/17 14:19:02;;;;;;;15.40;7.72;;;;;;;;;;143738;619;46020;-60
2021/12/17 14:21:31;;;;;;;13.13;6.55;;;;;;;;;;143742;602;46021;-60
2021/12/17 14:23:59;;;;;;;10.40;7.18;;;;;;;;;;143732;621;47020;-60
2021/12/17 14:26:31;;;;;;;8.65;6.80;;;;;;;;;;143739;597;46027;-60
2021/12/17 14:29:11;;;;;;;12.18;6.80;;;;;;;;;;143740;627;46020;-60
2021/12/17 14:31:38;;;;;;;10.25;6.87;;;;;;;;;;143742;575;46020;-61
2021/12/17 14:34:05;;;;;;;11.48;6.55;;;;;;;;;;143739;595;47020;-60
2021/12/17 14:36:38;;;;;;;12.02;6.97;;;;;;;;;;143736;615;47010;-60
2021/12/17 14:39:14;;;;;;;9.68;6.87;;;;;;;;;;143739;571;46020;-60
2021/12/17 14:42:01;;;;;;;11.85;6.60;;;;;;;;;;143744;594;46020;-61
2021/12/17 14:44:40;;;;;;;9.43;6.90;;;;;;;;;;143741;593;47020;-59
2021/12/17 14:47:18;;;;;;;8.80;6.87;;;;;;;;;;143739;600;47010;-59
2021/12/17 15:01:35;;;;;;;9.00;6.47;;;;;;;;;;143741;616;47020;-59
2021/12/17 15:04:02;;;;;;;10.32;6.85;;;;;;;;;;143725;608;46020;-60
2021/12/17 15:06:29;;;;;;;8.68;6.12;;;;;;;;;;143737;587;47023;-59
2021/12/17 15:08:57;;;;;;;11.38;7.10;;;;;;;;;;143737;585;47010;-59
2021/12/17 15:11:27;;;;;;;10.57;6.95;;;;;;;;;;143738;565;46020;-59
2021/12/17 15:13:55;;;;;;;10.05;7.28;;;;;;;;;;143737;584;46021;-59
2021/12/17 15:16:22;;;;;;;9.13;6.30;;;;;;;;;;143728;576;47020;-60
2021/12/17 15:18:49;;;;;;;9.73;7.12;;;;;;;;;;143737;587;47015;-60
2021/12/17 15:21:16;;;;;;;12.07;7.53;;;;;;;;;;143738;594;46021;-60
2021/12/17 15:23:43;;;;;;;9.07;6.78;;;;;;;;;;143738;569;46020;-59
2021/12/17 15:26:10;;;;;;;11.43;8.32;;;;;;;;;;143737;613;47022;-60
2021/12/17 15:28:37;;;;;;;14.23;9.27;;;;;;;;;;143736;585;47010;-59
2021/12/17 15:31:06;;;;;;;15.13;8.15;;;;;;;;;;143735;674;46909;-59
2021/12/17 15:33:34;;;;;;;13.35;8.57;;;;;;;;;;143742;579;46020;-59
2021/12/17 15:36:01;;;;;;;12.15;8.93;;;;;;;;;;143736;592;47023;-59
2021/12/17 15:38:28;;;;;;;15.65;8.38;;;;;;;;;;143736;576;46028;-59
2021/12/17 15:40:55;;;;;;;12.80;7.97;;;;;;;;;;143734;587;46020;-59
2021/12/17 15:43:22;;;;;;;16.87;10.85;;;;;;;;;;143738;589;46021;-59
2021/12/17 15:45:51;;;;;;;17.80;11.15;;;;;;;;;;143731;599;47022;-60
2021/12/17 15:48:19;;;;;;;17.62;11.20;;;;;;;;;;143737;582;47010;-59
2021/12/17 15:50:46;;;;;;;17.48;11.95;;;;;;;;;;143734;601;46021;-59
2021/12/17 15:53:14;;;;;;;11.73;7.82;;;;;;;;;;143734;610;46020;-59
2021/12/17 15:55:41;;;;;;;12.18;8.20;;;;;;;;;;143738;570;47022;-60
2021/12/17 15:58:11;;;;;;;11.27;7.87;;;;;;;;;;143736;575;47011;-59
2021/12/17 16:00:38;;;;;;;11.82;8.55;;;;;;;;;;143734;572;46020;-59
2021/12/17 16:03:07;;;;;;;13.68;9.40;;;;;;;;;;143742;600;46020;-59
2021/12/17 16:05:35;;;;;;;15.50;10.00;;;;;;;;;;143731;580;47020;-58
2021/12/17 16:08:04;;;;;;;18.40;9.50;;;;;;;;;;143731;581;47010;-58
2021/12/17 16:11:10;;;;;;;18.90;12.27;;;;;;;;;;143731;585;46020;-58
2021/12/17 16:20:59;;;;;;;10.95;8.73;;;;;;;;;;143737;656;47021;-58
2021/12/17 16:21:44;;;;;;;11.27;8.77;;;;;;;;;;143739;707;46022;-59
2021/12/17 16:24:12;;;;;;;15.27;11.63;;;;;;;;;;143740;620;46020;-60
2021/12/17 16:26:39;;;;;;;18.05;11.07;;;;;;;;;;143736;610;47022;-60
2021/12/17 16:29:08;;;;;;;12.98;8.85;;;;;;;;;;143734;571;47010;-60
2021/12/17 16:31:35;;;;;;;12.32;8.75;;;;;;;;;;143735;611;46020;-60
2021/12/17 16:34:04;;;;;;;14.52;9.63;;;;;;;;;;143738;603;46020;-60
2021/12/17 16:36:35;;;;;;;18.40;9.40;;;;;;;;;;143737;598;47020;-60
2021/12/17 16:39:04;;;;;;;11.63;8.43;;;;;;;;;;143735;585;47010;-60
2021/12/17 16:41:31;;;;;;;15.95;9.02;;;;;;;;;;143737;570;46020;-60
2021/12/17 16:44:03;;;;;;;11.75;8.25;;;;;;;;;;143740;572;46021;-61
2021/12/17 16:49:28;;;;;;;16.08;13.07;;;;;;;;;;143740;587;45918;-60
2021/12/17 16:51:55;;;;;;;14.55;9.45;;;;;;;;;;143738;565;46020;-60
2021/12/17 16:54:22;;;;;;;13.27;8.75;;;;;;;;;;143739;564;46020;-60
2021/12/17 16:56:49;;;;;;;13.02;8.90;;;;;;;;;;143731;641;47022;-61
2021/12/17 16:59:17;;;;;;;18.30;9.82;;;;;;;;;;143735;599;47010;-61
2021/12/17 17:01:44;;;;;;;16.58;8.65;;;;;;;;;;143736;582;46020;-61
2021/12/17 17:04:11;;;;;;;13.40;8.65;;;;;;;;;;143740;565;46020;-60
2021/12/17 17:06:40;;;;;;;11.43;8.23;;;;;;;;;;143736;658;47023;-60
2021/12/17 17:09:10;;;;;;;15.23;8.60;;;;;;;;;;143737;622;47010;-60
2021/12/17 17:11:39;;;;;;;16.23;9.98;;;;;;;;;;143737;594;46020;-62
2021/12/17 17:14:06;;;;;;;11.43;7.85;;;;;;;;;;143735;585;46020;-61
2021/12/17 17:16:35;;;;;;;11.45;7.90;;;;;;;;;;143739;589;47020;-62
2021/12/17 17:19:02;;;;;;;11.95;6.75;;;;;;;;;;143735;588;47010;-60
2021/12/17 17:21:29;;;;;;;8.32;6.28;;;;;;;;;;143733;586;46020;-60
2021/12/17 17:23:59;;;;;;;16.00;7.45;;;;;;;;;;143741;591;46020;-60
2021/12/17 17:26:28;;;;;;;19.20;12.35;;;;;;;;;;143736;600;47022;-60
2021/12/17 17:28:56;;;;;;;15.10;8.98;;;;;;;;;;143729;658;47010;-60
2021/12/17 17:31:23;;;;;;;14.85;11.10;;;;;;;;;;143735;595;46020;-61
2021/12/17 17:33:50;;;;;;;24.15;19.37;;;;;;;;;;143735;569;46020;-60
2021/12/17 17:36:21;;;;;;;13.95;10.32;;;;;;;;;;143731;624;47020;-60
2021/12/17 17:38:49;;;;;;;17.45;9.20;;;;;;;;;;143735;594;47010;-60
2021/12/17 17:41:18;;;;;;;14.18;11.10;;;;;;;;;;143735;622;46020;-60
2021/12/17 17:43:45;;;;;;;14.48;8.65;;;;;;;;;;143730;618;46021;-60
2021/12/17 17:46:12;;;;;;;9.77;7.70;;;;;;;;;;143732;586;47022;-60
2021/12/17 17:48:40;;;;;;;13.38;5.87;;;;;;;;;;143738;633;47010;-60